createdAt,value
2017-04-19T00:00:27.754Z,42.20
2017-04-19T00:01:33.489Z,42.20
2017-04-19T00:02:37.155Z,42.30
2017-04-19T00:03:28.850Z,42.30
2017-04-19T00:04:37.256Z,42.20
2017-04-19T00:05:35.047Z,42.20
2017-04-19T00:06:28.687Z,42.20
2017-04-19T00:07:37.536Z,42.20
2017-04-19T00:08:32.005Z,42.20
2017-04-19T00:09:27.752Z,42.30
2017-04-19T00:10:29.267Z,42.20
2017-04-19T00:11:37.073Z,42.20
2017-04-19T00:12:33.788Z,42.50
2017-04-19T00:13:31.747Z,42.30
2017-04-19T00:14:31.237Z,42.20
2017-04-19T00:15:43.092Z,42.20
2017-04-19T00:16:37.742Z,42.20
2017-04-19T00:17:28.520Z,42.30
2017-04-19T00:18:29.531Z,42.20
2017-04-19T00:19:38.802Z,42.30
2017-04-19T00:20:28.544Z,42.30
2017-04-19T00:21:29.472Z,42.20
2017-04-19T00:22:30.262Z,42.30
2017-04-19T00:23:28.822Z,42.20
2017-04-19T00:24:37.410Z,42.30
2017-04-19T00:25:29.431Z,42.20
2017-04-19T00:26:28.390Z,42.20
2017-04-19T00:27:40.102Z,is
2017-04-19T00:28:27.842Z,42.30
2017-04-19T00:29:28.512Z,42.30
2017-04-19T00:30:28.692Z,42.20
2017-04-19T00:31:29.219Z,42.30
2017-04-19T00:32:36.472Z,42.20
2017-04-19T00:33:41.237Z,42.20
2017-04-19T00:34:32.090Z,42.20
2017-04-19T00:35:34.315Z,42.20
2017-04-19T00:36:33.380Z,42.20
2017-04-19T00:37:37.444Z,42.20
2017-04-19T00:38:27.769Z,42.40
2017-04-19T00:39:24.035Z,42.20
2017-04-19T00:40:28.665Z,42.30
2017-04-19T00:41:29.166Z,42.20
2017-04-19T00:42:29.186Z,42.20
2017-04-19T00:43:36.212Z,42.20
2017-04-19T00:44:29.385Z,42.20
2017-04-19T00:45:29.237Z,42.30
2017-04-19T00:46:33.765Z,42.20
2017-04-19T00:47:27.485Z,42.30
2017-04-19T00:48:31.943Z,42.20
2017-04-19T00:49:37.238Z,is
2017-04-19T00:50:27.467Z,42.20
2017-04-19T00:51:28.751Z,42.20
2017-04-19T00:52:29.794Z,42.20
2017-04-19T00:53:28.575Z,42.20
2017-04-19T00:54:34.083Z,42.20
2017-04-19T00:55:38.872Z,42.20
2017-04-19T00:56:37.212Z,42.20
2017-04-19T00:57:38.474Z,42.20
2017-04-19T00:58:38.111Z,42.20
2017-04-19T00:59:34.258Z,42.30
2017-04-19T01:00:29.498Z,42.20
2017-04-19T01:01:35.155Z,42.20
2017-04-19T01:02:36.751Z,41.70
2017-04-19T01:03:45.168Z,42.20
2017-04-19T01:04:28.837Z,42.20
2017-04-19T01:05:37.777Z,42.20
2017-04-19T01:06:37.757Z,42.30
2017-04-19T01:07:28.635Z,42.30
2017-04-19T01:08:29.649Z,42.20
2017-04-19T01:09:39.243Z,42.20
2017-04-19T01:10:23.400Z,42.20
2017-04-19T01:11:32.366Z,42.20
2017-04-19T01:12:37.421Z,42.20
2017-04-19T01:13:43.977Z,42.20
2017-04-19T01:14:48.873Z,42.20
2017-04-19T01:15:28.558Z,42.30
2017-04-19T01:17:46.020Z,42.20
2017-04-19T01:18:37.111Z,42.20
2017-04-19T01:19:36.638Z,42.20
2017-04-19T01:20:34.683Z,42.20
2017-04-19T01:21:30.438Z,42.20
2017-04-19T01:22:39.889Z,42.30
2017-04-19T01:23:37.485Z,42.30
2017-04-19T01:24:33.383Z,42.20
2017-04-19T01:25:35.593Z,42.30
2017-04-19T01:26:39.341Z,42.30
2017-04-19T01:27:35.236Z,42.30
2017-04-19T01:28:30.050Z,42.20
2017-04-19T01:29:28.949Z,42.30
2017-04-19T01:30:29.703Z,42.30
2017-04-19T01:31:49.564Z,42.20
2017-04-19T01:32:47.276Z,42.30
2017-04-19T01:33:35.238Z,42.30
2017-04-19T01:34:29.456Z,42.30
2017-04-19T01:35:40.860Z,is
2017-04-19T01:36:36.034Z,42.30
2017-04-19T01:37:30.653Z,42.30
2017-04-19T01:38:37.584Z,42.40
2017-04-19T01:39:36.700Z,42.30
2017-04-19T01:40:37.198Z,42.30
2017-04-19T01:41:28.239Z,42.30
2017-04-19T01:42:28.855Z,42.30
2017-04-19T01:43:39.862Z,42.30
2017-04-19T01:44:37.117Z,42.30
2017-04-19T01:45:43.073Z,42.20
2017-04-19T01:46:36.170Z,42.30
2017-04-19T01:47:43.234Z,42.30
2017-04-19T01:48:27.473Z,42.30
2017-04-19T01:49:38.730Z,42.50
2017-04-19T01:50:43.757Z,42.20
2017-04-19T01:51:38.075Z,42.30
2017-04-19T01:52:44.106Z,42.30
2017-04-19T01:53:43.212Z,42.30
2017-04-19T01:54:35.277Z,42.30
2017-04-19T01:55:35.257Z,42.40
2017-04-19T01:56:44.946Z,42.30
2017-04-19T01:57:33.496Z,42.90
2017-04-19T01:58:27.851Z,42.30
2017-04-19T01:59:45.606Z,42.40
2017-04-19T02:00:35.234Z,42.40
2017-04-19T02:01:40.454Z,42.30
2017-04-19T02:02:29.940Z,42.30
2017-04-19T02:03:35.279Z,42.40
2017-04-19T02:04:34.430Z,42.30
2017-04-19T02:05:38.071Z,42.30
2017-04-19T02:06:40.881Z,42.40
2017-04-19T02:08:01.436Z,42.30
2017-04-19T02:08:38.458Z,42.40
2017-04-19T02:10:42.020Z,42.40
2017-04-19T02:11:28.839Z,42.40
2017-04-19T02:12:31.910Z,42.30
2017-04-19T02:13:35.308Z,42.30
2017-04-19T02:14:31.100Z,42.30
2017-04-19T02:15:39.612Z,42.20
2017-04-19T02:16:39.983Z,42.30
2017-04-19T02:17:34.164Z,42.30
2017-04-19T02:18:33.300Z,42.40
2017-04-19T02:19:28.751Z,42.30
2017-04-19T02:20:34.957Z,42.20
2017-04-19T02:21:38.279Z,42.30
2017-04-19T02:22:38.544Z,42.40
2017-04-19T02:23:34.044Z,42.30
2017-04-19T02:24:38.682Z,42.30
2017-04-19T02:25:33.516Z,42.30
2017-04-19T02:26:43.934Z,42.30
2017-04-19T02:27:39.737Z,42.30
2017-04-19T02:28:29.029Z,42.30
2017-04-19T02:29:33.146Z,is
2017-04-19T02:30:35.396Z,42.30
2017-04-19T02:31:32.123Z,42.30
2017-04-19T02:32:48.644Z,42.30
2017-04-19T02:33:38.006Z,is
2017-04-19T02:34:36.739Z,42.30
2017-04-19T02:35:41.387Z,42.30
2017-04-19T02:36:37.760Z,42.20
2017-04-19T02:37:32.720Z,42.40
2017-04-19T02:38:27.718Z,42.40
2017-04-19T02:39:32.477Z,42.40
2017-04-19T02:40:37.795Z,42.30
2017-04-19T02:41:28.725Z,42.30
2017-04-19T02:42:29.386Z,42.40
2017-04-19T02:43:30.556Z,42.30
2017-04-19T02:45:33.889Z,42.20
2017-04-19T02:46:38.232Z,42.30
2017-04-19T02:47:32.490Z,42.30
2017-04-19T02:48:38.959Z,42.40
2017-04-19T02:49:44.016Z,42.30
2017-04-19T02:50:40.477Z,42.40
2017-04-19T02:51:33.898Z,42.30
2017-04-19T02:52:34.249Z,42.40
2017-04-19T02:53:33.886Z,42.30
2017-04-19T02:54:39.369Z,42.30
2017-04-19T02:55:28.423Z,42.30
2017-04-19T02:56:29.653Z,42.40
2017-04-19T02:57:38.103Z,42.40
2017-04-19T02:58:37.459Z,42.30
2017-04-19T02:59:49.367Z,42.30
2017-04-19T03:00:33.675Z,42.30
2017-04-19T03:01:40.418Z,42.30
2017-04-19T03:02:29.003Z,42.40
2017-04-19T03:03:29.517Z,42.70
2017-04-19T03:05:28.924Z,42.30
2017-04-19T03:06:28.984Z,42.40
2017-04-19T03:07:29.994Z,42.30
2017-04-19T03:08:35.152Z,42.30
2017-04-19T03:09:38.345Z,42.40
2017-04-19T03:10:33.172Z,42.30
2017-04-19T03:11:37.580Z,42.30
2017-04-19T03:12:29.489Z,42.30
2017-04-19T03:13:32.865Z,42.30
2017-04-19T03:14:40.604Z,42.30
2017-04-19T03:15:29.748Z,42.30
2017-04-19T03:16:37.765Z,42.30
2017-04-19T03:17:32.423Z,is
2017-04-19T03:18:29.234Z,42.50
2017-04-19T03:19:29.188Z,42.40
2017-04-19T03:20:34.055Z,42.40
2017-04-19T03:21:30.614Z,42.40
2017-04-19T03:22:33.801Z,42.40
2017-04-19T03:23:27.618Z,42.40
2017-04-19T03:24:44.164Z,42.30
2017-04-19T03:25:38.007Z,42.30
2017-04-19T03:26:28.751Z,42.30
2017-04-19T03:27:36.082Z,42.40
2017-04-19T03:28:34.768Z,42.30
2017-04-19T03:29:33.345Z,42.40
2017-04-19T03:30:30.055Z,is
2017-04-19T03:31:29.472Z,42.40
2017-04-19T03:32:26.893Z,42.40
2017-04-19T03:33:32.063Z,42.40
2017-04-19T03:34:31.056Z,42.40
2017-04-19T03:35:27.787Z,is
2017-04-19T03:36:32.242Z,is
2017-04-19T03:37:28.700Z,42.40
2017-04-19T03:38:29.638Z,42.40
2017-04-19T03:39:29.034Z,42.40
2017-04-19T03:40:38.135Z,42.50
2017-04-19T03:41:27.563Z,42.40
2017-04-19T03:42:34.395Z,42.40
2017-04-19T03:43:33.603Z,42.30
2017-04-19T03:44:35.833Z,42.40
2017-04-19T03:45:37.228Z,42.40
2017-04-19T03:46:27.625Z,42.40
2017-04-19T03:47:37.187Z,42.40
2017-04-19T03:48:28.580Z,42.40
2017-04-19T03:49:36.464Z,42.40
2017-04-19T03:50:37.371Z,42.40
2017-04-19T03:51:28.828Z,42.40
2017-04-19T03:52:28.659Z,42.40
2017-04-19T03:53:34.763Z,42.40
2017-04-19T03:54:28.773Z,42.40
2017-04-19T03:55:33.303Z,42.80
2017-04-19T03:56:47.316Z,42.40
2017-04-19T03:57:35.666Z,42.40
2017-04-19T03:58:30.563Z,42.50
2017-04-19T03:59:28.581Z,42.50
2017-04-19T04:00:29.984Z,42.50
2017-04-19T04:01:28.744Z,42.40
2017-04-19T04:02:33.556Z,42.40
2017-04-19T04:03:28.640Z,42.30
2017-04-19T04:04:29.012Z,42.40
2017-04-19T04:05:27.035Z,42.40
2017-04-19T04:06:39.091Z,is
2017-04-19T04:07:31.549Z,42.50
2017-04-19T04:08:37.382Z,42.40
2017-04-19T04:09:35.220Z,42.40
2017-04-19T04:10:35.231Z,is
2017-04-19T04:11:29.021Z,42.40
2017-04-19T04:12:35.264Z,42.50
2017-04-19T04:13:28.756Z,42.40
2017-04-19T04:14:37.428Z,42.40
2017-04-19T04:15:28.568Z,42.40
2017-04-19T04:16:29.480Z,42.40
2017-04-19T04:17:28.757Z,42.40
2017-04-19T04:18:35.795Z,42.40
2017-04-19T04:19:34.876Z,42.50
2017-04-19T04:20:27.108Z,42.40
2017-04-19T04:21:38.610Z,42.40
2017-04-19T04:22:29.071Z,42.40
2017-04-19T04:23:35.829Z,42.40
2017-04-19T04:24:35.723Z,42.40
2017-04-19T04:27:23.508Z,42.50
2017-04-19T04:27:40.155Z,42.30
2017-04-19T04:28:31.754Z,42.40
2017-04-19T04:29:27.616Z,is
2017-04-19T04:30:41.903Z,42.50
2017-04-19T04:31:42.854Z,42.30
2017-04-19T04:32:38.128Z,42.40
2017-04-19T04:33:29.029Z,42.40
2017-04-19T04:34:34.608Z,42.50
2017-04-19T04:35:29.295Z,42.60
2017-04-19T04:36:28.830Z,42.30
2017-04-19T04:37:29.271Z,42.30
2017-04-19T04:38:42.908Z,42.40
2017-04-19T04:39:42.058Z,is
2017-04-19T04:40:37.147Z,42.60
2017-04-19T04:41:28.516Z,42.30
2017-04-19T04:42:37.164Z,42.30
2017-04-19T04:43:27.796Z,42.40
2017-04-19T04:44:40.824Z,42.30
2017-04-19T04:45:29.858Z,42.40
2017-04-19T04:46:38.057Z,42.30
2017-04-19T04:47:29.026Z,42.40
2017-04-19T04:48:29.411Z,42.50
2017-04-19T04:49:28.625Z,42.40
2017-04-19T04:50:29.657Z,42.40
2017-04-19T04:51:33.145Z,42.40
2017-04-19T04:52:30.036Z,42.50
2017-04-19T04:53:40.882Z,is
2017-04-19T04:54:38.047Z,42.40
2017-04-19T04:55:37.483Z,42.40
2017-04-19T04:56:29.312Z,42.40
2017-04-19T04:57:35.310Z,42.40
2017-04-19T04:58:28.790Z,42.30
2017-04-19T04:59:35.135Z,42.50
2017-04-19T05:00:36.664Z,42.30
2017-04-19T05:01:23.585Z,42.40
2017-04-19T05:02:38.903Z,42.40
2017-04-19T05:03:35.930Z,42.30
2017-04-19T05:04:32.699Z,42.40
2017-04-19T05:05:32.007Z,42.30
2017-04-19T05:06:22.771Z,42.30
2017-04-19T05:07:28.704Z,42.40
2017-04-19T05:08:28.653Z,42.40
2017-04-19T05:09:28.833Z,42.30
2017-04-19T05:10:28.655Z,42.30
2017-04-19T05:11:29.510Z,42.50
2017-04-19T05:12:29.388Z,42.30
2017-04-19T05:13:38.334Z,42.40
2017-04-19T05:14:37.571Z,42.30
2017-04-19T05:15:31.709Z,42.30
2017-04-19T05:16:38.525Z,42.40
2017-04-19T05:17:38.455Z,42.40
2017-04-19T05:18:28.896Z,42.50
2017-04-19T05:19:35.105Z,42.30
2017-04-19T05:20:28.674Z,42.40
2017-04-19T05:21:44.078Z,42.40
2017-04-19T05:22:43.661Z,42.40
2017-04-19T05:23:28.555Z,42.40
2017-04-19T05:24:29.503Z,42.50
2017-04-19T05:25:27.726Z,42.50
2017-04-19T05:26:36.890Z,42.40
2017-04-19T05:27:32.032Z,42.40
2017-04-19T05:28:37.251Z,42.10
2017-04-19T05:29:38.576Z,42.40
2017-04-19T05:30:38.231Z,42.40
2017-04-19T05:31:28.579Z,42.50
2017-04-19T05:32:29.621Z,42.40
2017-04-19T05:33:29.363Z,42.50
2017-04-19T05:34:28.962Z,42.40
2017-04-19T05:35:23.237Z,41.60
2017-04-19T05:36:34.083Z,42.50
2017-04-19T05:37:33.917Z,42.50
2017-04-19T05:38:27.196Z,42.40
2017-04-19T05:39:42.604Z,42.40
2017-04-19T05:40:42.577Z,42.50
2017-04-19T05:41:27.414Z,42.50
2017-04-19T05:42:29.372Z,42.50
2017-04-19T05:43:28.701Z,42.40
2017-04-19T05:44:39.811Z,42.60
2017-04-19T05:45:28.556Z,42.50
2017-04-19T05:46:27.159Z,is
2017-04-19T05:47:33.680Z,42.50
2017-04-19T05:48:30.659Z,42.50
2017-04-19T05:49:36.502Z,42.50
2017-04-19T05:50:33.160Z,42.50
2017-04-19T05:51:38.154Z,42.40
2017-04-19T05:52:32.015Z,42.50
2017-04-19T05:53:29.549Z,43.20
2017-04-19T05:54:29.011Z,42.30
2017-04-19T05:55:29.229Z,42.50
2017-04-19T05:56:28.575Z,42.50
2017-04-19T05:57:29.245Z,42.70
2017-04-19T05:58:48.488Z,42.80
2017-04-19T05:59:38.878Z,43.40
2017-04-19T06:00:31.984Z,43.80
2017-04-19T06:01:36.510Z,43.60
2017-04-19T06:02:38.007Z,43.70
2017-04-19T06:03:28.550Z,43.60
2017-04-19T06:04:40.942Z,43.40
2017-04-19T06:05:39.487Z,43.00
2017-04-19T06:06:28.470Z,43.10
2017-04-19T06:07:29.368Z,42.90
2017-04-19T06:08:28.299Z,43.20
2017-04-19T06:09:29.186Z,42.90
2017-04-19T06:10:31.096Z,42.90
2017-04-19T06:11:32.195Z,42.20
2017-04-19T06:12:28.697Z,42.50
2017-04-19T06:13:37.144Z,42.30
2017-04-19T06:14:42.884Z,42.60
2017-04-19T06:15:33.486Z,42.50
2017-04-19T06:16:38.759Z,42.80
2017-04-19T06:17:28.656Z,42.70
2017-04-19T06:18:31.881Z,42.50
2017-04-19T06:19:28.810Z,42.10
2017-04-19T06:20:38.461Z,42.00
2017-04-19T06:21:34.793Z,41.90
2017-04-19T06:22:36.903Z,41.70
2017-04-19T06:23:32.156Z,41.70
2017-04-19T06:24:27.367Z,is
2017-04-19T06:25:32.548Z,41.30
2017-04-19T06:26:34.844Z,41.20
2017-04-19T06:27:34.002Z,41.10
2017-04-19T06:28:29.133Z,40.90
2017-04-19T06:29:33.200Z,40.80
2017-04-19T06:30:29.292Z,40.80
2017-04-19T06:31:29.182Z,40.70
2017-04-19T06:32:32.220Z,is
2017-04-19T06:33:32.709Z,40.70
2017-04-19T06:34:31.721Z,40.60
2017-04-19T06:35:31.864Z,40.60
2017-04-19T06:36:28.009Z,40.60
2017-04-19T06:37:36.999Z,40.60
2017-04-19T06:38:38.348Z,40.60
2017-04-19T06:39:34.280Z,40.50
2017-04-19T06:40:29.477Z,40.50
2017-04-19T06:41:29.049Z,40.40
2017-04-19T06:42:29.223Z,40.50
2017-04-19T06:43:38.322Z,40.60
2017-04-19T06:44:22.730Z,40.50
2017-04-19T06:45:35.429Z,40.50
2017-04-19T06:46:38.534Z,40.50
2017-04-19T06:47:29.093Z,40.50
2017-04-19T06:48:28.603Z,40.50
2017-04-19T06:49:41.847Z,40.50
2017-04-19T06:50:38.195Z,41.00
2017-04-19T06:51:39.545Z,is
2017-04-19T06:52:29.683Z,40.50
2017-04-19T06:53:29.117Z,40.60
2017-04-19T06:54:34.685Z,40.60
2017-04-19T06:55:39.754Z,40.60
2017-04-19T06:56:27.154Z,40.50
2017-04-19T06:57:32.437Z,is
2017-04-19T06:58:28.048Z,is
2017-04-19T06:59:38.002Z,40.60
2017-04-19T07:00:33.568Z,40.70
2017-04-19T07:01:29.141Z,40.60
2017-04-19T07:02:40.914Z,40.60
2017-04-19T07:03:31.655Z,40.70
2017-04-19T07:04:29.438Z,40.70
2017-04-19T07:05:38.473Z,40.70
2017-04-19T07:06:37.949Z,40.70
2017-04-19T07:07:37.121Z,40.70
2017-04-19T07:08:31.497Z,40.80
2017-04-19T07:09:28.400Z,40.70
2017-04-19T07:10:34.621Z,40.80
2017-04-19T07:11:32.243Z,40.80
2017-04-19T07:12:40.782Z,40.90
2017-04-19T07:13:35.192Z,40.90
2017-04-19T07:14:41.008Z,40.90
2017-04-19T07:15:30.248Z,40.90
2017-04-19T07:16:33.522Z,41.00
2017-04-19T07:17:32.731Z,41.00
2017-04-19T07:18:39.966Z,41.00
2017-04-19T07:19:38.014Z,41.00
2017-04-19T07:20:43.442Z,40.90
2017-04-19T07:21:36.818Z,40.90
2017-04-19T07:22:45.170Z,41.00
2017-04-19T07:23:38.179Z,40.90
2017-04-19T07:24:28.705Z,41.00
2017-04-19T07:25:28.713Z,41.00
2017-04-19T07:26:40.850Z,41.00
2017-04-19T07:27:29.965Z,41.00
2017-04-19T07:28:38.838Z,41.00
2017-04-19T07:29:29.149Z,41.10
2017-04-19T07:30:27.450Z,41.10
2017-04-19T07:31:37.088Z,41.00
2017-04-19T07:32:27.525Z,41.00
2017-04-19T07:33:28.945Z,41.10
2017-04-19T07:34:35.898Z,41.00
2017-04-19T07:35:36.328Z,41.10
2017-04-19T07:36:37.903Z,41.10
2017-04-19T07:37:29.659Z,41.10
2017-04-19T07:38:43.339Z,41.10
2017-04-19T07:39:32.227Z,41.10
2017-04-19T07:40:33.217Z,41.20
2017-04-19T07:41:26.943Z,41.10
2017-04-19T07:42:32.149Z,is
2017-04-19T07:43:42.724Z,41.20
2017-04-19T07:44:36.376Z,41.20
2017-04-19T07:45:37.628Z,41.20
2017-04-19T07:46:47.120Z,41.20
2017-04-19T07:47:36.496Z,41.20
2017-04-19T07:48:34.913Z,41.30
2017-04-19T07:49:28.949Z,41.20
2017-04-19T07:50:32.308Z,41.30
2017-04-19T07:51:36.239Z,41.30
2017-04-19T07:52:28.250Z,41.30
2017-04-19T07:53:31.727Z,41.30
2017-04-19T07:54:35.134Z,41.30
2017-04-19T07:55:33.902Z,41.40
2017-04-19T07:56:34.816Z,41.30
2017-04-19T07:57:28.780Z,41.40
2017-04-19T07:58:45.058Z,41.30
2017-04-19T07:59:50.230Z,41.30
2017-04-19T08:00:40.778Z,41.40
2017-04-19T08:01:43.052Z,41.40
2017-04-19T08:02:37.346Z,41.40
2017-04-19T08:03:29.274Z,41.50
2017-04-19T08:04:32.578Z,41.40
2017-04-19T08:05:32.067Z,40.80
2017-04-19T08:06:35.247Z,41.40
2017-04-19T08:07:38.852Z,41.50
2017-04-19T08:08:35.600Z,41.50
2017-04-19T08:09:39.153Z,41.40
2017-04-19T08:10:28.746Z,41.50
2017-04-19T08:11:28.667Z,41.50
2017-04-19T08:12:37.761Z,41.50
2017-04-19T08:13:28.461Z,41.50
2017-04-19T08:14:43.663Z,is
2017-04-19T08:15:32.420Z,41.50
2017-04-19T08:16:37.133Z,41.50
2017-04-19T08:17:32.908Z,41.50
2017-04-19T08:18:34.906Z,41.50
2017-04-19T08:19:35.862Z,41.70
2017-04-19T08:20:43.021Z,41.50
2017-04-19T08:21:35.251Z,41.60
2017-04-19T08:22:31.318Z,41.60
2017-04-19T08:23:33.991Z,41.50
2017-04-19T08:24:28.541Z,41.60
2017-04-19T08:25:33.271Z,41.70
2017-04-19T08:26:34.193Z,41.50
2017-04-19T08:27:28.693Z,41.60
2017-04-19T08:28:32.485Z,41.60
2017-04-19T08:29:33.419Z,41.70
2017-04-19T08:30:31.893Z,41.60
2017-04-19T08:31:36.041Z,41.70
2017-04-19T08:32:28.391Z,41.70
2017-04-19T08:33:29.232Z,41.60
2017-04-19T08:34:57.558Z,41.70
2017-04-19T08:35:35.842Z,41.70
2017-04-19T08:36:43.939Z,41.70
2017-04-19T08:37:28.770Z,41.70
2017-04-19T08:38:26.406Z,41.70
2017-04-19T08:39:29.455Z,41.70
2017-04-19T08:40:29.046Z,41.80
2017-04-19T08:41:34.130Z,is
2017-04-19T08:42:30.548Z,41.70
2017-04-19T08:43:45.812Z,41.70
2017-04-19T08:44:29.624Z,41.60
2017-04-19T08:45:30.025Z,41.70
2017-04-19T08:46:47.927Z,41.80
2017-04-19T08:47:31.923Z,41.70
2017-04-19T08:48:31.925Z,41.80
2017-04-19T08:49:31.894Z,41.70
2017-04-19T08:50:38.065Z,41.60
2017-04-19T08:51:48.279Z,41.70
2017-04-19T08:52:37.135Z,is
2017-04-19T08:53:32.364Z,41.60
2017-04-19T08:54:33.838Z,41.70
2017-04-19T08:55:29.580Z,41.70
2017-04-19T08:56:29.388Z,41.70
2017-04-19T08:57:23.588Z,41.70
2017-04-19T08:58:42.698Z,41.70
2017-04-19T08:59:34.889Z,41.80
2017-04-19T09:00:27.829Z,is
2017-04-19T09:01:39.065Z,41.80
2017-04-19T09:02:32.000Z,41.70
2017-04-19T09:03:37.447Z,is
2017-04-19T09:04:37.161Z,is
2017-04-19T09:05:39.124Z,41.70
2017-04-19T09:06:35.301Z,41.70
2017-04-19T09:07:29.146Z,41.70
2017-04-19T09:08:28.997Z,41.70
2017-04-19T09:09:29.597Z,41.80
2017-04-19T09:10:31.563Z,41.70
2017-04-19T09:11:40.207Z,is
2017-04-19T09:12:35.044Z,is
2017-04-19T09:13:33.996Z,41.80
2017-04-19T09:14:33.343Z,41.70
2017-04-19T09:15:38.489Z,41.80
2017-04-19T09:16:44.836Z,41.70
2017-04-19T09:17:29.679Z,41.70
2017-04-19T09:18:29.575Z,41.70
2017-04-19T09:19:29.455Z,41.90
2017-04-19T09:20:38.212Z,41.80
2017-04-19T09:21:44.851Z,41.70
2017-04-19T09:22:28.922Z,41.70
2017-04-19T09:23:33.462Z,41.70
2017-04-19T09:24:32.156Z,41.70
2017-04-19T09:25:28.489Z,41.80
2017-04-19T09:26:32.826Z,41.70
2017-04-19T09:27:27.572Z,41.70
2017-04-19T09:28:28.833Z,41.70
2017-04-19T09:29:32.635Z,41.70
2017-04-19T09:30:38.230Z,41.70
2017-04-19T09:31:38.521Z,41.80
2017-04-19T09:32:35.014Z,41.70
2017-04-19T09:33:38.031Z,41.80
2017-04-19T09:34:32.529Z,41.70
2017-04-19T09:35:38.031Z,41.70
2017-04-19T09:36:35.082Z,41.80
2017-04-19T09:37:33.892Z,41.80
2017-04-19T09:38:36.944Z,41.70
2017-04-19T09:40:38.643Z,41.70
2017-04-19T09:41:37.275Z,41.70
2017-04-19T09:42:38.400Z,41.80
2017-04-19T09:43:33.203Z,41.80
2017-04-19T09:44:34.512Z,41.90
2017-04-19T09:45:33.273Z,is
2017-04-19T09:46:47.904Z,41.70
2017-04-19T09:47:39.676Z,41.70
2017-04-19T09:48:35.474Z,41.80
2017-04-19T09:49:35.929Z,41.80
2017-04-19T09:50:38.617Z,41.80
2017-04-19T09:51:37.272Z,41.80
2017-04-19T09:52:29.506Z,41.80
2017-04-19T09:53:23.473Z,41.80
2017-04-19T09:54:38.180Z,41.80
2017-04-19T09:55:37.575Z,41.80
2017-04-19T09:56:32.789Z,is
2017-04-19T09:57:32.090Z,41.80
2017-04-19T09:58:35.111Z,41.90
2017-04-19T09:59:48.209Z,41.80
2017-04-19T10:00:31.741Z,41.80
2017-04-19T10:01:39.332Z,41.70
2017-04-19T10:02:28.830Z,41.80
2017-04-19T10:03:28.803Z,41.80
2017-04-19T10:04:43.540Z,41.70
2017-04-19T10:05:43.601Z,41.90
2017-04-19T10:06:32.503Z,41.90
2017-04-19T10:07:37.717Z,41.90
2017-04-19T10:08:38.219Z,41.90
2017-04-19T10:09:38.208Z,41.90
2017-04-19T10:10:45.043Z,41.80
2017-04-19T10:11:33.803Z,42.00
2017-04-19T10:12:28.144Z,41.90
2017-04-19T10:13:29.426Z,41.90
2017-04-19T10:14:33.908Z,41.80
2017-04-19T10:15:32.502Z,41.80
2017-04-19T10:16:33.297Z,41.70
2017-04-19T10:17:32.739Z,41.70
2017-04-19T10:18:38.546Z,is
2017-04-19T10:19:38.382Z,41.80
2017-04-19T10:20:29.381Z,41.70
2017-04-19T10:21:36.163Z,41.70
2017-04-19T10:22:29.035Z,41.70
2017-04-19T10:23:29.325Z,41.70
2017-04-19T10:24:29.307Z,41.80
2017-04-19T10:25:32.794Z,41.70
2017-04-19T10:26:31.875Z,41.70
2017-04-19T10:27:34.307Z,41.80
2017-04-19T10:28:32.545Z,41.70
2017-04-19T10:29:41.854Z,41.70
2017-04-19T10:30:26.267Z,41.70
2017-04-19T10:32:28.841Z,41.80
2017-04-19T10:33:49.363Z,41.70
2017-04-19T10:34:28.494Z,is
2017-04-19T10:35:41.155Z,41.90
2017-04-19T10:36:29.744Z,41.80
2017-04-19T10:37:33.477Z,41.90
2017-04-19T10:38:32.514Z,42.10
2017-04-19T10:39:38.479Z,41.90
2017-04-19T10:40:47.193Z,41.80
2017-04-19T10:41:36.969Z,41.80
2017-04-19T10:42:28.433Z,is
2017-04-19T10:43:29.245Z,41.80
2017-04-19T10:44:38.787Z,41.90
2017-04-19T10:45:33.116Z,41.70
2017-04-19T10:46:29.292Z,41.90
2017-04-19T10:47:39.249Z,41.80
2017-04-19T10:48:38.701Z,41.80
2017-04-19T10:49:39.238Z,42.00
2017-04-19T10:50:29.100Z,41.90
2017-04-19T10:51:38.195Z,41.90
2017-04-19T10:52:38.311Z,41.80
2017-04-19T10:53:33.411Z,41.80
2017-04-19T10:54:38.751Z,41.90
2017-04-19T10:55:28.852Z,41.90
2017-04-19T10:56:28.801Z,41.80
2017-04-19T10:57:28.625Z,41.90
2017-04-19T10:58:29.283Z,41.80
2017-04-19T10:59:38.205Z,41.80
2017-04-19T11:00:33.462Z,41.80
2017-04-19T11:01:29.026Z,41.80
2017-04-19T11:02:28.989Z,41.80
2017-04-19T11:03:33.272Z,42.60
2017-04-19T11:04:29.163Z,41.80
2017-04-19T11:05:38.605Z,41.80
2017-04-19T11:06:33.243Z,42.00
2017-04-19T11:07:28.578Z,41.80
2017-04-19T11:08:23.803Z,41.70
2017-04-19T11:09:38.081Z,41.90
2017-04-19T11:10:29.494Z,41.00
2017-04-19T11:11:27.818Z,41.90
2017-04-19T11:12:35.796Z,41.90
2017-04-19T11:13:32.424Z,41.90
2017-04-19T11:14:27.873Z,42.00
2017-04-19T11:15:42.893Z,41.80
2017-04-19T11:16:29.602Z,41.90
2017-04-19T11:17:28.801Z,41.90
2017-04-19T11:18:33.402Z,41.80
2017-04-19T11:19:29.482Z,41.70
2017-04-19T11:20:38.224Z,41.90
2017-04-19T11:21:38.103Z,is
2017-04-19T11:22:43.054Z,41.70
2017-04-19T11:23:28.624Z,41.80
2017-04-19T11:24:37.727Z,41.80
2017-04-19T11:25:47.283Z,41.90
2017-04-19T11:26:36.693Z,41.70
2017-04-19T11:27:36.412Z,41.70
2017-04-19T11:28:36.620Z,41.70
2017-04-19T11:29:53.632Z,41.80
2017-04-19T11:30:36.390Z,41.70
2017-04-19T11:31:42.449Z,41.80
2017-04-19T11:32:38.757Z,41.70
2017-04-19T11:33:37.133Z,41.80
2017-04-19T11:34:37.523Z,41.80
2017-04-19T11:35:45.653Z,41.80
2017-04-19T11:36:30.796Z,41.70
2017-04-19T11:37:37.713Z,41.90
2017-04-19T11:38:36.008Z,41.70
2017-04-19T11:39:33.436Z,41.70
2017-04-19T11:40:28.724Z,41.70
2017-04-19T11:41:37.496Z,41.80
2017-04-19T11:42:33.494Z,41.70
2017-04-19T11:43:29.214Z,41.70
2017-04-19T11:44:38.742Z,41.80
2017-04-19T11:45:28.599Z,41.80
2017-04-19T11:46:26.876Z,41.70
2017-04-19T11:47:32.188Z,41.80
2017-04-19T11:48:38.603Z,41.80
2017-04-19T11:49:28.966Z,41.90
2017-04-19T11:50:36.131Z,41.80
2017-04-19T11:51:29.062Z,42.10
2017-04-19T11:52:31.561Z,41.80
2017-04-19T11:53:38.783Z,41.80
2017-04-19T11:54:33.068Z,is
2017-04-19T11:55:26.140Z,41.90
2017-04-19T11:56:34.905Z,41.90
2017-04-19T11:57:36.522Z,41.90
2017-04-19T11:58:33.034Z,is
2017-04-19T11:59:37.970Z,41.70
2017-04-19T12:00:38.567Z,41.70
2017-04-19T12:01:29.453Z,41.80
2017-04-19T12:02:28.887Z,is
2017-04-19T12:03:12.742Z,41.90
2017-04-19T12:04:29.410Z,41.80
2017-04-19T12:05:28.557Z,41.80
2017-04-19T12:06:38.113Z,41.80
2017-04-19T12:07:32.036Z,41.90
2017-04-19T12:08:28.723Z,41.80
2017-04-19T12:09:37.036Z,41.80
2017-04-19T12:10:28.335Z,41.80
2017-04-19T12:11:28.471Z,41.80
2017-04-19T12:12:27.767Z,42.00
2017-04-19T12:13:28.587Z,41.90
2017-04-19T12:14:27.530Z,41.70
2017-04-19T12:15:28.670Z,41.80
2017-04-19T12:16:28.509Z,is
2017-04-19T12:17:28.911Z,41.80
2017-04-19T12:18:33.945Z,41.90
2017-04-19T12:19:27.116Z,41.90
2017-04-19T12:20:42.095Z,41.90
2017-04-19T12:21:42.845Z,41.80
2017-04-19T12:22:39.435Z,41.80
2017-04-19T12:23:28.581Z,42.00
2017-04-19T12:24:44.679Z,41.80
2017-04-19T12:25:38.957Z,41.80
2017-04-19T12:26:37.143Z,41.90
2017-04-19T12:27:29.623Z,41.80
2017-04-19T12:28:37.954Z,41.70
2017-04-19T12:29:38.597Z,41.80
2017-04-19T12:30:33.470Z,41.80
2017-04-19T12:31:38.946Z,41.80
2017-04-19T12:32:35.762Z,41.90
2017-04-19T12:33:33.199Z,41.80
2017-04-19T12:34:39.185Z,41.80
2017-04-19T12:35:35.785Z,41.80
2017-04-19T12:36:39.118Z,41.80
2017-04-19T12:37:33.490Z,41.80
2017-04-19T12:38:39.439Z,41.80
2017-04-19T12:39:28.604Z,41.90
2017-04-19T12:40:33.696Z,41.80
2017-04-19T12:41:43.344Z,41.90
2017-04-19T12:42:31.535Z,41.80
2017-04-19T12:43:49.568Z,42.00
2017-04-19T12:44:28.647Z,41.90
2017-04-19T12:45:38.806Z,41.90
2017-04-19T12:46:33.466Z,42.00
2017-04-19T12:47:28.474Z,42.00
2017-04-19T12:48:33.912Z,41.90
2017-04-19T12:49:29.626Z,42.00
2017-04-19T12:50:28.849Z,42.00
2017-04-19T12:51:28.143Z,42.00
2017-04-19T12:52:38.849Z,42.00
2017-04-19T12:53:34.684Z,41.90
2017-04-19T12:54:37.992Z,42.00
2017-04-19T12:55:37.522Z,41.90
2017-04-19T12:56:40.519Z,41.90
2017-04-19T12:57:29.722Z,41.90
2017-04-19T12:58:38.768Z,41.80
2017-04-19T12:59:33.355Z,41.90
2017-04-19T13:00:29.361Z,42.20
2017-04-19T13:01:28.546Z,41.80
2017-04-19T13:02:29.342Z,41.80
2017-04-19T13:03:38.422Z,41.80